Latest Coastal Weather Observations for Yeppoon

IDQ60701

Issued at 1:51 pm EST Friday 20 January 2017 (issued every 10 minutes, with the page automatically refreshed every 10 minutes)

About coastal observations | Map of coastal stations | Coastal observations for QLD | Marine services | Other Formats
Station Details ID: 033294 Name: YEPPOON THE ESPLANADE Lat: -23.14 Lon: 150.75 Height: 5.5 m
Data from the previous 72 hours. | See also: Recent months at Yeppoon
Date/Time
EST
Temp
°C
Wind Pressure Rain since
9am
mm
Weather Cloud Vis
km
Sea
Height
m
Swell
Dir  Spd
kts
Gust
kts
hPa Trend Height
m
Period
s
Dir
20/01:30pm 30.3 NE 13 16 1007.8 - 0.0 - - - - - - -
20/01:00pm 30.6 NE 12 15 1008.5 - 0.0 - - - - - - -
20/12:30pm 30.6 NE 11 14 1008.8 - 0.0 - - - - - - -
20/12:00pm 30.3 NE 12 15 1009.1 - 0.0 - - - - - - -
20/11:30am 30.0 NE 11 13 1009.4 - 0.0 - - - - - - -
20/11:00am 30.1 NE 11 13 1009.7 - 0.0 - - - - - - -
20/10:30am 30.0 NE 10 14 1010.0 - 0.0 - - - - - - -
20/10:00am 29.7 NE 9 11 1010.2 - 0.0 - - - - - - -
20/09:30am 29.4 NE 8 10 1010.4 - 0.0 - - - - - - -
20/09:00am 29.7 NNE 7 10 1010.3 - 0.0 - - - - - - -
20/08:30am 29.2 NNE 8 10 1010.4 - 0.0 - - - - - - -
20/08:00am 28.8 N 8 11 1010.4 - 0.0 - - - - - - -
20/07:30am 28.5 N 8 13 1010.3 - 0.0 - - - - - - -
20/07:00am 28.0 NNW 7 11 1010.0 - 0.0 - - - - - - -
20/06:30am 26.7 NNW 5 7 1009.6 - 0.0 - - - - - - -
20/06:00am 26.0 NW 4 6 1009.3 - 0.0 - - - - - - -
20/05:30am 26.0 NNW 5 7 1008.9 - 0.0 - - - - - - -
20/05:00am 26.0 NNW 5 8 1008.6 - 0.0 - - - - - - -
20/04:30am 26.3 NNW 5 7 1008.5 - 0.0 - - - - - - -
20/04:00am 26.1 NNW 5 7 1008.2 - 0.0 - - - - - - -
20/03:30am 26.4 N 5 8 1008.2 - 0.0 - - - - - - -
20/03:00am 26.5 NNW 6 9 1008.4 - 0.0 - - - - - - -
20/02:30am 26.4 NNW 4 6 1008.6 - 0.0 - - - - - - -
20/02:00am 26.6 N 4 8 1008.8 - 0.0 - - - - - - -
20/01:30am 26.7 N 7 9 1008.7 - 0.0 - - - - - - -
20/01:00am 27.1 N 7 10 1008.9 - 0.0 - - - - - - -
20/12:30am 27.0 N 6 8 1009.1 - 0.0 - - - - - - -
20/12:00am 27.0 N 7 11 1009.1 - 0.0 - - - - - - -
 
Date/Time
EST
Temp
°C
Wind Pressure Rain since
9am
mm
Weather Cloud Vis
km
Sea
Height
m
Swell
Dir  Spd
kts
Gust
kts
hPa Trend Height
m
Period
s
Dir
19/11:30pm 26.8 N 5 7 1009.1 - 0.0 - - - - - - -
19/11:00pm 26.9 N 6 7 1009.2 - 0.0 - - - - - - -
19/10:30pm 26.6 N 6 9 1009.3 - 0.0 - - - - - - -
19/10:00pm 27.0 N 10 11 1009.1 - 0.0 - - - - - - -
19/09:30pm 27.0 N 9 11 1008.5 - 0.0 - - - - - - -
19/09:00pm 27.4 N 12 14 1008.2 - 0.0 - - - - - - -
19/08:30pm 27.6 N 12 16 1008.0 - 0.0 - - - - - - -
19/08:00pm 28.3 N 14 18 1007.8 - 0.0 - - - - - - -
19/07:30pm 28.7 N 16 19 1007.4 - 0.0 - - - - - - -
19/07:00pm 28.8 N 16 18 1006.9 - 0.0 - - - - - - -
19/06:30pm 28.8 NNE 22 25 1006.4 - 0.0 - - - - - - -
19/06:00pm 29.1 NNE 21 25 1006.1 - 0.0 - - - - - - -
19/05:30pm 29.3 NNE 20 23 1006.0 - 0.0 - - - - - - -
19/05:00pm 29.6 NNE 19 21 1005.8 - 0.0 - - - - - - -
19/04:30pm 29.8 NNE 19 21 1005.9 - 0.0 - - - - - - -
19/04:00pm 29.9 NNE 17 19 1006.1 - 0.0 - - - - - - -
19/03:30pm 30.1 NNE 15 17 1006.5 - 0.0 - - - - - - -
19/03:00pm 30.3 NNE 15 17 1007.0 - 0.0 - - - - - - -
19/02:30pm 30.1 NNE 17 19 1007.4 - 0.0 - - - - - - -
19/02:00pm 30.4 NNE 18 20 1007.8 - 0.0 - - - - - - -
19/01:30pm 30.6 NNE 15 17 1008.3 - 0.0 - - - - - - -
19/01:00pm 30.3 NE 15 18 1008.7 - 0.0 - - - - - - -
19/12:30pm 30.7 NNE 10 11 1008.7 - 0.0 - - - - - - -
19/12:00pm 30.8 NE 8 11 1009.2 - 0.0 - - - - - - -
19/11:30am 30.8 ENE 9 11 1009.8 - 0.0 - - - - - - -
19/11:00am 30.2 ENE 9 12 1010.1 - 0.0 - - - - - - -
19/10:30am 30.3 NE 6 9 1010.4 - 0.0 - - - - - - -
19/10:00am 30.1 N 6 8 1010.7 - 0.0 - - - - - - -
19/09:30am 30.7 W 7 11 1010.7 - 0.0 - - - - - - -
19/09:00am 29.8 W 7 13 1010.9 - 0.0 - - - - - - -
19/08:30am 29.2 WNW 8 11 1011.0 - 0.0 - - - - - - -
19/08:00am 28.2 WNW 7 10 1011.2 - 0.0 - - - - - - -
19/07:30am 26.8 W 5 7 1011.4 - 0.0 - - - - - - -
19/07:00am 25.6 W 5 7 1011.0 - 0.0 - - - - - - -
19/06:30am 24.5 WNW 5 7 1010.8 - 0.0 - - - - - - -
19/06:00am 23.8 NW 5 7 1010.3 - 0.0 - - - - - - -
19/05:30am 23.8 NNW 4 6 1010.2 - 0.0 - - - - - - -
19/05:00am 24.2 NNW 4 6 1010.0 - 0.0 - - - - - - -
19/04:30am 24.8 NNW 4 6 1009.8 - 0.0 - - - - - - -
19/04:00am 25.3 NNW 5 8 1009.7 - 0.0 - - - - - - -
19/03:30am 25.4 NNW 4 7 1009.8 - 0.0 - - - - - - -
19/03:00am 25.8 NNW 6 9 1009.9 - 0.0 - - - - - - -
19/02:30am 25.8 NNW 5 8 1010.1 - 0.0 - - - - - - -
19/02:00am 26.0 NNW 6 10 1010.2 - 0.0 - - - - - - -
19/01:30am 26.2 NNW 6 8 1010.2 - 0.0 - - - - - - -
19/01:00am 26.1 N 4 6 1010.7 - 0.0 - - - - - - -
19/12:30am 26.2 N 7 9 1010.8 - 0.0 - - - - - - -
19/12:00am 26.4 N 6 8 1011.1 - 0.0 - - - - - - -
 
Date/Time
EST
Temp
°C
Wind Pressure Rain since
9am
mm
Weather Cloud Vis
km
Sea
Height
m
Swell
Dir  Spd
kts
Gust
kts
hPa Trend Height
m
Period
s
Dir
18/11:30pm 26.4 NNW 5 8 1011.5 - 0.0 - - - - - - -
18/11:00pm 26.4 N 5 10 1011.6 - 0.0 - - - - - - -
18/10:30pm 26.5 W 5 7 1011.7 - 0.0 - - - - - - -
18/10:00pm 26.7 N 5 8 1011.5 - 0.0 - - - - - - -
18/09:30pm 26.7 N 5 11 1011.7 - 0.0 - - - - - - -
18/09:00pm 26.9 N 5 8 1011.4 - 0.0 - - - - - - -
18/08:30pm 27.1 N 6 9 1011.2 - 0.0 - - - - - - -
18/08:00pm 27.6 N 13 18 1011.0 - 0.0 - - - - - - -
18/07:30pm 28.1 NNE 16 18 1010.6 - 0.0 - - - - - - -
18/07:00pm 28.1 NNE 16 19 1010.5 - 0.0 - - - - - - -
18/06:30pm 28.3 NNE 17 19 1010.2 - 0.0 - - - - - - -
18/06:00pm 28.6 NNE 15 17 1010.4 - 0.0 - - - - - - -
18/05:30pm 28.7 NNE 13 15 1010.4 - 0.0 - - - - - - -
18/05:00pm 29.1 NE 12 14 1010.6 - 0.0 - - - - - - -
18/04:30pm 29.3 NNE 12 15 1010.5 - 0.0 - - - - - - -
18/04:00pm 29.7 NE 11 14 1010.8 - 0.0 - - - - - - -
18/03:30pm 29.5 NE 12 14 1011.0 - 0.0 - - - - - - -
18/03:00pm 30.0 NE 12 14 1011.4 - 0.0 - - - - - - -
18/02:30pm 30.0 NE 12 13 1011.6 - 0.0 - - - - - - -
18/02:00pm 29.9 ENE 11 13 1011.9 - 0.0 - - - - - - -
18/01:30pm 29.6 ENE 10 12 1012.2 - 0.0 - - - - - - -
18/01:00pm 29.6 ENE 9 11 1012.4 - 0.0 - - - - - - -
18/12:30pm 29.9 ENE 9 11 1012.9 - 0.0 - - - - - - -
18/12:00pm 29.8 ENE 8 10 1013.3 - 0.0 - - - - - - -
18/11:30am 29.4 ENE 9 11 1013.6 - 0.0 - - - - - - -
18/11:00am 29.7 ENE 8 10 1013.9 - 0.0 - - - - - - -
18/10:30am 29.2 ENE 6 9 1014.2 - 0.0 - - - - - - -
18/10:00am 29.1 ENE 6 8 1014.5 - 0.0 - - - - - - -
18/09:30am 29.1 ENE 6 7 1014.7 - 0.0 - - - - - - -
18/09:00am 29.1 ENE 6 7 1014.7 - 0.0 - - - - - - -
18/08:30am 28.3 ENE 6 8 1014.7 - 0.0 - - - - - - -
18/08:00am 28.6 ENE 6 8 1014.7 - 0.0 - - - - - - -
18/07:30am 28.2 E 6 9 1014.6 - 0.0 - - - - - - -
18/07:00am 27.9 ENE 6 8 1014.4 - 0.0 - - - - - - -
18/06:30am 27.3 ENE 8 10 1014.1 - 0.0 - - - - - - -
18/06:00am 27.2 ENE 9 11 1013.8 - 0.0 - - - - - - -
18/05:30am 27.0 ENE 10 12 1013.3 - 0.0 - - - - - - -
18/05:00am 26.8 E 11 13 1012.9 - 0.0 - - - - - - -
18/04:30am 27.0 E 11 14 1012.5 - 0.0 - - - - - - -
18/04:00am 26.9 E 11 14 1012.3 - 0.0 - - - - - - -
18/03:30am 26.9 ENE 11 14 1012.5 - 0.0 - - - - - - -
18/03:00am 27.1 E 12 15 1012.6 - 0.0 - - - - - - -
18/02:30am 27.0 ENE 12 16 1012.9 - 0.0 - - - - - - -
18/02:00am 27.0 ENE 13 16 1013.1 - 0.0 - - - - - - -
18/01:30am 27.0 ENE 13 16 1013.5 - 0.0 - - - - - - -
18/01:00am 27.1 ENE 14 16 1013.7 - 0.0 - - - - - - -
18/12:30am 27.1 E 13 16 1014.1 - 0.0 - - - - - - -
18/12:00am 27.3 E 12 17 1014.5 - 0.0 - - - - - - -
 
Date/Time
EST
Temp
°C
Wind Pressure Rain since
9am
mm
Weather Cloud Vis
km
Sea
Height
m
Swell
Dir  Spd
kts
Gust
kts
hPa Trend Height
m
Period
s
Dir
17/11:30pm 27.2 E 13 15 1014.8 - 0.0 - - - - - - -
17/11:00pm 27.2 ENE 13 15 1014.9 - 0.0 - - - - - - -
17/10:30pm 27.2 ENE 13 16 1015.2 - 0.0 - - - - - - -
17/10:00pm 27.2 E 13 17 1015.2 - 0.0 - - - - - - -
17/09:30pm 27.4 E 12 15 1015.2 - 0.0 - - - - - - -
17/09:00pm 27.3 ENE 13 16 1015.1 - 0.0 - - - - - - -
17/08:30pm 27.4 ENE 13 15 1015.0 - 0.0 - - - - - - -
17/08:00pm 27.3 ENE 12 15 1014.8 - 0.0 - - - - - - -
17/07:30pm 27.4 ENE 12 15 1014.6 - 0.0 - - - - - - -
17/07:00pm 27.5 ENE 13 15 1014.2 - 0.0 - - - - - - -
17/06:30pm 27.6 ENE 12 14 1014.1 - 0.0 - - - - - - -
17/06:00pm 27.9 ENE 12 15 1013.9 - 0.0 - - - - - - -
17/05:30pm 28.0 ENE 11 14 1013.7 - 0.0 - - - - - - -
17/05:00pm 28.3 ENE 12 15 1013.5 - 0.0 - - - - - - -
17/04:30pm 28.4 ENE 12 15 1013.4 - 0.0 - - - - - - -
17/04:00pm 28.7 ENE 12 15 1013.3 - 0.0 - - - - - - -
17/03:30pm 28.8 ENE 12 15 1013.5 - 0.0 - - - - - - -
17/03:00pm 29.0 ENE 11 13 1013.7 - 0.0 - - - - - - -
17/02:30pm 29.1 ENE 10 13 1014.0 - 0.0 - - - - - - -
17/02:00pm 30.1 E 10 13 1014.2 - 0.0 - - - - - - -

Other Formats:

Comma delimited format used in spreadsheet applications
http://www.bom.gov.au/fwo/IDQ60701/IDQ60701.94373.axf

JavaScript Object Notation format (JSON) in row-major order
http://www.bom.gov.au/fwo/IDQ60701/IDQ60701.94373.json